createdAt,value
2019-05-07T00:00:48.749Z,99.90
2019-05-07T00:04:47.511Z,99.90
2019-05-07T00:08:45.962Z,99.90
2019-05-07T00:12:44.421Z,99.90
2019-05-07T00:16:42.921Z,99.90
2019-05-07T00:20:42.434Z,99.90
2019-05-07T00:24:44.487Z,99.90
2019-05-07T00:28:44.615Z,99.90
2019-05-07T00:32:46.374Z,99.90
2019-05-07T00:36:49.423Z,99.90
2019-05-07T00:40:51.939Z,99.90
2019-05-07T00:45:16.965Z,99.90
2019-05-07T00:49:04.919Z,99.90
2019-05-07T00:53:03.461Z,99.90
2019-05-07T00:57:05.369Z,99.90
2019-05-07T01:01:04.319Z,99.90
2019-05-07T01:05:03.140Z,99.90
2019-05-07T01:09:03.178Z,99.90
2019-05-07T01:13:08.346Z,99.90
2019-05-07T01:17:10.010Z,99.90
2019-05-07T01:21:13.240Z,99.90
2019-05-07T01:25:14.108Z,99.90
2019-05-07T01:29:24.681Z,99.90
2019-05-07T01:33:33.193Z,99.90
2019-05-07T01:37:32.398Z,99.90
2019-05-07T01:41:35.101Z,99.90
2019-05-07T01:45:45.366Z,99.90
2019-05-07T01:49:36.135Z,99.90
2019-05-07T01:53:34.667Z,99.90
2019-05-07T01:57:42.130Z,99.90
2019-05-07T02:01:57.332Z,99.90
2019-05-07T02:05:59.200Z,99.90
2019-05-07T02:10:05.373Z,99.90
2019-05-07T02:14:04.201Z,99.90
2019-05-07T02:18:09.491Z,99.90
2019-05-07T02:22:14.712Z,99.90
2019-05-07T02:26:18.407Z,99.90
2019-05-07T02:30:24.244Z,99.90
2019-05-07T02:34:25.033Z,99.90
2019-05-07T02:38:34.615Z,99.90
2019-05-07T02:42:38.395Z,99.90
2019-05-07T02:46:52.835Z,99.90
2019-05-07T02:50:56.286Z,99.90
2019-05-07T02:54:56.446Z,99.90
2019-05-07T02:58:55.519Z,99.90
2019-05-07T03:02:54.003Z,99.90
2019-05-07T03:06:54.344Z,99.90
2019-05-07T03:10:56.818Z,99.90
2019-05-07T03:14:58.478Z,99.90
2019-05-07T03:19:05.432Z,99.90
2019-05-07T03:23:07.853Z,99.90
2019-05-07T03:27:13.770Z,99.90
2019-05-07T03:31:25.530Z,99.90
2019-05-07T03:35:36.335Z,99.90
2019-05-07T03:39:35.319Z,99.90
2019-05-07T03:43:44.175Z,99.90
2019-05-07T03:47:44.370Z,99.90
2019-05-07T03:51:44.223Z,99.90
2019-05-07T03:55:49.385Z,99.90
2019-05-07T03:59:53.244Z,99.90
2019-05-07T04:03:53.271Z,99.90
2019-05-07T04:07:54.032Z,99.90
2019-05-07T04:11:58.514Z,99.90
2019-05-07T04:15:57.024Z,99.90
2019-05-07T04:19:55.757Z,99.90
2019-05-07T04:24:18.195Z,99.90
2019-05-07T04:28:23.587Z,99.90
2019-05-07T04:32:33.409Z,99.90
2019-05-07T04:36:36.143Z,99.90
2019-05-07T04:40:34.249Z,99.90
2019-05-07T04:44:46.068Z,99.90
2019-05-07T04:48:43.534Z,99.90
2019-05-07T04:52:43.706Z,99.90
2019-05-07T04:56:52.842Z,99.90
2019-05-07T05:00:47.364Z,99.90
2019-05-07T05:04:47.981Z,99.90
2019-05-07T05:08:53.243Z,99.90
2019-05-07T05:12:53.367Z,99.90
2019-05-07T05:16:52.441Z,99.90
2019-05-07T05:21:04.415Z,99.90
2019-05-07T05:25:23.243Z,99.90
2019-05-07T05:29:24.240Z,99.90
2019-05-07T05:33:28.096Z,99.90
2019-05-07T05:41:57.557Z,99.90
2019-05-07T05:46:02.709Z,99.90
2019-05-07T05:50:02.815Z,99.90
2019-05-07T05:54:05.228Z,99.90
2019-05-07T05:58:12.187Z,99.90
2019-05-07T06:02:32.213Z,99.90
2019-05-07T06:06:21.936Z,99.90
2019-05-07T06:10:25.172Z,99.90
2019-05-07T06:14:42.524Z,99.90
2019-05-07T06:18:47.861Z,99.90
2019-05-07T06:22:52.882Z,99.90
2019-05-07T06:26:52.221Z,99.90
2019-05-07T06:30:54.022Z,99.90
2019-05-07T06:34:53.295Z,99.90
2019-05-07T06:39:05.324Z,99.90
2019-05-07T06:43:15.134Z,99.90
2019-05-07T06:47:16.099Z,99.90
2019-05-07T06:51:22.098Z,99.90
2019-05-07T06:55:22.861Z,99.90
2019-05-07T06:59:22.770Z,99.90
2019-05-07T07:03:32.806Z,99.90
2019-05-07T07:07:42.643Z,99.90
2019-05-07T07:11:52.918Z,99.90
2019-05-07T07:15:55.958Z,99.90
2019-05-07T07:19:58.725Z,99.90
2019-05-07T07:23:54.789Z,99.90
2019-05-07T07:27:57.015Z,99.90
2019-05-07T07:32:03.308Z,99.90
2019-05-07T07:36:02.489Z,99.90
2019-05-07T07:40:14.903Z,99.90
2019-05-07T07:44:13.519Z,99.90
2019-05-07T07:48:24.521Z,99.90
2019-05-07T07:52:23.262Z,99.90
2019-05-07T07:56:28.917Z,99.90
2019-05-07T08:00:47.047Z,99.90
2019-05-07T08:04:47.415Z,99.90
2019-05-07T08:08:48.724Z,99.90
2019-05-07T08:12:52.548Z,99.90
2019-05-07T08:16:55.668Z,99.90
2019-05-07T08:20:54.217Z,99.90
2019-05-07T08:25:01.403Z,99.90
2019-05-07T08:28:59.219Z,99.90
2019-05-07T08:33:09.803Z,99.90
2019-05-07T08:37:19.105Z,99.90
2019-05-07T08:41:14.892Z,99.90
2019-05-07T08:45:34.326Z,99.90
2019-05-07T08:49:39.581Z,99.90
2019-05-07T08:53:39.839Z,99.90
2019-05-07T08:57:48.025Z,99.90
2019-05-07T09:01:52.014Z,99.90
2019-05-07T09:05:47.698Z,99.90
2019-05-07T09:09:49.366Z,99.90
2019-05-07T09:13:52.439Z,99.90
2019-05-07T09:17:57.004Z,99.90
2019-05-07T09:21:52.792Z,99.90
2019-05-07T09:25:52.250Z,99.90
2019-05-07T09:29:55.252Z,99.90
2019-05-07T09:33:55.636Z,99.90
2019-05-07T09:37:59.219Z,99.90
2019-05-07T09:42:06.529Z,99.90
2019-05-07T09:46:08.664Z,99.90
2019-05-07T09:50:13.036Z,98.70
2019-05-07T09:54:19.029Z,98.10
2019-05-07T09:58:35.758Z,98.10
2019-05-07T10:02:25.786Z,96.50
2019-05-07T10:06:27.617Z,95.00
2019-05-07T10:10:33.040Z,94.10
2019-05-07T10:14:34.872Z,94.10
2019-05-07T10:18:33.411Z,93.60
2019-05-07T10:22:37.365Z,94.40
2019-05-07T10:26:36.034Z,94.80
2019-05-07T10:30:35.467Z,96.60
2019-05-07T10:34:36.405Z,97.20
2019-05-07T10:38:41.641Z,99.90
2019-05-07T10:42:43.039Z,99.90
2019-05-07T10:47:01.863Z,99.90
2019-05-07T10:51:07.549Z,99.90
2019-05-07T10:55:13.187Z,99.90
2019-05-07T10:59:17.515Z,99.90
2019-05-07T11:03:16.108Z,99.90
2019-05-07T11:07:19.215Z,99.90
2019-05-07T11:11:51.786Z,99.90
2019-05-07T11:15:59.607Z,99.90
2019-05-07T11:19:55.322Z,99.90
2019-05-07T11:23:55.071Z,99.90
2019-05-07T11:27:54.005Z,99.90
2019-05-07T11:31:55.956Z,99.90
2019-05-07T11:35:55.072Z,99.90
2019-05-07T11:39:55.901Z,99.90
2019-05-07T11:44:04.471Z,99.90
2019-05-07T11:48:13.141Z,99.90
2019-05-07T11:52:17.262Z,99.90
2019-05-07T11:56:16.786Z,99.90
2019-05-07T12:00:23.663Z,99.90
2019-05-07T12:04:22.192Z,99.90
2019-05-07T12:08:39.348Z,99.40
2019-05-07T12:12:32.464Z,96.10
2019-05-07T12:16:32.475Z,94.20
2019-05-07T12:20:35.074Z,97.00
2019-05-07T12:24:36.990Z,91.30
2019-05-07T12:28:38.485Z,89.10
2019-05-07T12:32:42.622Z,88.00
2019-05-07T12:36:42.790Z,83.00
2019-05-07T12:40:41.911Z,82.30
2019-05-07T12:44:44.448Z,80.10
2019-05-07T12:48:45.191Z,79.50
2019-05-07T12:53:02.205Z,76.50
2019-05-07T12:57:02.520Z,77.50
2019-05-07T13:01:09.289Z,73.50
2019-05-07T13:05:12.179Z,72.00
2019-05-07T13:09:14.165Z,74.20
2019-05-07T13:13:12.717Z,73.30
2019-05-07T13:17:12.063Z,74.10
2019-05-07T13:21:16.250Z,77.80
2019-05-07T13:25:15.171Z,79.20
2019-05-07T13:29:13.951Z,76.50
2019-05-07T13:33:24.093Z,73.70
2019-05-07T13:37:24.325Z,72.20
2019-05-07T13:41:36.580Z,71.90
2019-05-07T13:45:44.510Z,68.20
2019-05-07T13:49:45.197Z,67.40
2019-05-07T13:53:57.102Z,60.70
2019-05-07T13:57:58.319Z,57.90
2019-05-07T14:01:59.914Z,57.00
2019-05-07T14:06:08.384Z,57.30
2019-05-07T14:10:12.423Z,58.60
2019-05-07T14:14:13.274Z,61.10
2019-05-07T14:18:24.100Z,63.50
2019-05-07T14:22:23.709Z,63.30
2019-05-07T14:26:23.887Z,64.80
2019-05-07T14:30:32.729Z,66.60
2019-05-07T14:34:36.035Z,65.50
2019-05-07T14:38:42.625Z,65.00
2019-05-07T14:42:44.821Z,63.80
2019-05-07T14:46:50.564Z,66.30
2019-05-07T14:50:53.595Z,66.20
2019-05-07T14:54:51.710Z,68.50
2019-05-07T14:58:51.671Z,69.70
2019-05-07T15:02:54.888Z,70.70
2019-05-07T15:06:58.773Z,72.60
2019-05-07T15:10:57.876Z,74.30
2019-05-07T15:15:04.450Z,73.90
2019-05-07T15:19:15.988Z,75.50
2019-05-07T15:23:19.494Z,76.90
2019-05-07T15:27:18.085Z,77.70
2019-05-07T15:31:18.329Z,80.60
2019-05-07T15:35:16.798Z,80.50
2019-05-07T15:39:19.661Z,79.90
2019-05-07T15:43:24.791Z,77.70
2019-05-07T15:47:26.488Z,78.30
2019-05-07T15:51:25.076Z,78.70
2019-05-07T15:55:23.620Z,78.70
2019-05-07T15:59:24.298Z,77.90
2019-05-07T16:03:42.676Z,80.70
2019-05-07T16:07:44.057Z,80.50
2019-05-07T16:11:49.261Z,84.90
2019-05-07T16:16:02.210Z,84.10
2019-05-07T16:20:07.518Z,87.60
2019-05-07T16:24:22.947Z,88.70
2019-05-07T16:28:28.675Z,83.30
2019-05-07T16:32:32.651Z,79.90
2019-05-07T16:36:42.805Z,80.70
2019-05-07T16:40:44.559Z,79.80
2019-05-07T16:44:43.078Z,73.50
2019-05-07T16:48:43.852Z,74.00
2019-05-07T16:52:46.798Z,73.90
2019-05-07T16:57:04.070Z,73.10
2019-05-07T17:01:08.886Z,73.30
2019-05-07T17:05:12.377Z,75.70
2019-05-07T17:09:14.929Z,76.30
2019-05-07T17:13:15.470Z,78.30
2019-05-07T17:17:15.728Z,78.00
2019-05-07T17:21:14.472Z,80.50
2019-05-07T17:25:33.403Z,81.30
2019-05-07T17:29:38.744Z,81.50
2019-05-07T17:33:38.791Z,82.30
2019-05-07T17:41:51.865Z,89.70
2019-05-07T17:45:57.579Z,92.00
2019-05-07T17:50:04.357Z,93.90
2019-05-07T17:54:07.981Z,92.20
2019-05-07T17:58:06.737Z,92.10
2019-05-07T18:02:12.124Z,92.40
2019-05-07T18:06:12.377Z,94.60
2019-05-07T18:10:12.672Z,96.60
2019-05-07T18:14:18.302Z,98.90
2019-05-07T18:18:17.009Z,99.90
2019-05-07T18:22:16.222Z,99.90
2019-05-07T18:26:30.330Z,99.90
2019-05-07T18:30:24.233Z,99.90
2019-05-07T18:34:26.319Z,99.90
2019-05-07T18:38:22.987Z,99.90
2019-05-07T18:42:24.399Z,99.90
2019-05-07T18:46:24.916Z,99.90
2019-05-07T18:50:28.501Z,99.90
2019-05-07T18:54:33.178Z,99.90
2019-05-07T18:58:39.780Z,99.90
2019-05-07T19:02:38.686Z,99.90
2019-05-07T19:06:39.206Z,99.90
2019-05-07T19:10:42.898Z,99.90
2019-05-07T19:14:59.938Z,99.90
2019-05-07T19:19:00.456Z,99.90
2019-05-07T19:23:02.651Z,99.90
2019-05-07T19:27:02.844Z,99.90
2019-05-07T19:31:01.443Z,99.90
2019-05-07T19:35:01.590Z,99.90
2019-05-07T19:39:02.049Z,99.90
2019-05-07T19:43:02.824Z,99.90
2019-05-07T19:47:12.644Z,99.90
2019-05-07T19:51:12.140Z,99.90
2019-05-07T19:55:16.266Z,99.90
2019-05-07T19:59:15.660Z,99.90
2019-05-07T20:03:14.204Z,99.90
2019-05-07T20:07:26.585Z,99.90
2019-05-07T20:11:33.130Z,99.90
2019-05-07T20:15:35.364Z,99.90
2019-05-07T20:19:34.645Z,99.90
2019-05-07T20:23:35.831Z,99.90
2019-05-07T20:27:34.944Z,99.90
2019-05-07T20:31:35.007Z,99.90
2019-05-07T20:35:33.638Z,99.90
2019-05-07T20:39:33.066Z,99.90
2019-05-07T20:43:37.371Z,99.90
2019-05-07T20:47:35.898Z,99.90
2019-05-07T20:51:34.349Z,99.90
2019-05-07T20:55:34.471Z,99.90
2019-05-07T20:59:33.279Z,99.90
2019-05-07T21:03:36.260Z,99.90
2019-05-07T21:07:35.289Z,99.90
2019-05-07T21:11:43.044Z,99.90
2019-05-07T21:15:52.622Z,99.90
2019-05-07T21:19:54.230Z,99.90
2019-05-07T21:23:54.801Z,99.90
2019-05-07T21:28:09.534Z,99.90
2019-05-07T21:32:08.545Z,99.90
2019-05-07T21:36:12.179Z,99.90
2019-05-07T21:40:18.790Z,99.90
2019-05-07T21:44:19.849Z,99.90
2019-05-07T21:48:19.018Z,99.90
2019-05-07T21:52:17.537Z,99.90
2019-05-07T21:56:22.877Z,99.90
2019-05-07T22:00:25.024Z,99.90
2019-05-07T22:04:26.774Z,99.90
2019-05-07T22:08:25.290Z,99.90
2019-05-07T22:12:31.999Z,99.90
2019-05-07T22:16:28.858Z,99.90
2019-05-07T22:20:27.317Z,99.90
2019-05-07T22:24:29.008Z,99.90
2019-05-07T22:28:37.376Z,99.90
2019-05-07T22:32:37.585Z,99.90
2019-05-07T22:36:47.799Z,99.90
2019-05-07T22:40:44.230Z,99.90
2019-05-07T22:44:50.440Z,99.90
2019-05-07T22:48:53.297Z,99.90
2019-05-07T22:53:01.884Z,99.90
2019-05-07T22:57:05.355Z,99.90
2019-05-07T23:01:13.187Z,99.90
2019-05-07T23:05:12.207Z,99.90
2019-05-07T23:09:14.139Z,99.90
2019-05-07T23:13:12.972Z,99.90
2019-05-07T23:17:12.586Z,99.90
2019-05-07T23:21:13.601Z,99.90
2019-05-07T23:25:12.242Z,99.90
2019-05-07T23:29:22.211Z,99.90
2019-05-07T23:33:24.796Z,99.90
2019-05-07T23:37:26.335Z,99.90
2019-05-07T23:41:29.161Z,99.90
2019-05-07T23:45:37.678Z,99.90
2019-05-07T23:49:35.110Z,99.90
2019-05-07T23:53:37.954Z,99.90
2019-05-07T23:57:38.425Z,99.90
